Priština, Kosovo

10:53 PM CET en Noviembre 25, 2014 (GMT +0100)
KHMI Prishtina | Change Station
CLOSE
Current Station
Estación meteorológica personal
Location: Pristina,
Altura: 1886 ft
Estaciones meteorológicas cercanas

Alt 1886 ft 42.65 °N, 21.14 °E | Updated 8 minutes ago

Overcast
Nublado
37.2 ° F
Sensación térmica 37 ° F
N
0.0
Viento Variable Viento desde NE
Gusts 2.2 mph

Hoy
Alta -- | Baja -- ° F
--% Posibilidad de precipitaciones
Ayer
Alta -- | Baja -- ° F
Precip. -- pul
6:38 AM 4:05 PM
Creciente, 14% visible
Presión 30.21 pul
Visibilidad 6.2 Millas
Nubes Nublado 7300 ft
Vientos helados 37 ° F
Punto de rocío 28 ° F
Humedad 70%
Precipitaciones 0.00 pul
Espesor de la nieve No disponible.
UV 0 de una escala de 12
Polen No disponible.
Calidad del aire No disponible.
Flu Activity No disponible.
METAR LWSK 252130Z 15002KT 9999 OVC073 03/01 Q1023 NOSIG

More Conditions Fewer Conditions

Presión 30.21 pul
Visibilidad 6.2 Millas
Nubes Nublado 7300 ft
Vientos helados 37 ° F
Punto de rocío 28 ° F
Humedad 70%
Precipitaciones 0.00 pul
Espesor de la nieve No disponible.
UV 0 de una escala de 12
Polen No disponible.
Calidad del aire No disponible.
Flu Activity No disponible.
METAR LWSK 252130Z 15002KT 9999 OVC073 03/01 Q1023 NOSIG

More Conditions Fewer Conditions

10-Day Weather Forecast

Almanac

Astronomía

Nov. 25, 2014 Salida Puesta
Hora real
Crepúsculo civil
Crepúsculo náutico
Crepúsculo astronómico
Luna
Horas de luz
Horas de luz
Tomorrow will be .
, % of the Moon is Illuminated

Extremos de hoy

Máximos del país Bajas del país

Community

WunderPhotos

Upload Photos

1,773,599 ¡fotos cargadas!

WunderBlogs® & News

Nearby

Calidad del aire

  Calidad del aire Índice AQ Contaminante
Not available.

Grosos de nieve

Estación Profundido Altura

Actividad de terremotos

Ciudad Distance Mag. Tiempo y dato
Magnitud mínima muestra es 2,5.

Temperaturas de aguas costeras

Lugar Temperatura

Estaciones meteorológicas cercanas